Time;durP1;ratioP1;P1;durP2;ratioP2;P2;SDS_P1;SDS_P2;PMS_P1;PMS_P2;Temp;Humidity;BMP_temperature;BMP_pressure;BME280_temperature;BME280_humidity;BME280_pressure;Samples;Min_cycle;Max_cycle;Signal;HPM_P1;HPM_P2
2023/06/04 00:00:06;;;;;;;;;;;;;;;19.14;61.99;99798.84;3147055;28;19920;-65
2023/06/04 00:01:38;;;;;;;;;;;;;;;19.12;61.70;99789.34;3143347;28;20421;-65
2023/06/04 00:03:11;;;;;;;;;;;;;;;19.07;61.90;99790.53;3138086;28;19932;-65
2023/06/04 00:04:42;;;;;;;;;;;;;;;19.04;61.77;99800.53;3147126;28;19928;-65
2023/06/04 00:06:14;;;;;;;;;;;;;;;18.99;61.79;99793.00;3144430;28;19929;-64
2023/06/04 00:07:45;;;;;;;;;;;;;;;18.98;61.63;99798.38;3138502;28;20262;-65
2023/06/04 00:09:17;;;;;;;;;;;;;;;18.94;61.58;99792.50;3142466;28;20410;-65
2023/06/04 00:10:49;;;;;;;;;;;;;;;18.89;61.56;99791.19;3147023;28;20317;-65
2023/06/04 00:12:20;;;;;;;;;;;;;;;18.87;61.58;99796.59;3145447;28;20317;-64
2023/06/04 00:13:52;;;;;;;;;;;;;;;18.83;61.58;99789.88;3145673;28;19996;-64
2023/06/04 00:15:24;;;;;;;;;;;;;;;18.80;61.48;99790.13;3146977;28;20308;-64
2023/06/04 00:16:54;;;;;;;;;;;;;;;18.78;61.70;99792.03;3146549;28;19959;-65
2023/06/04 00:18:27;;;;;;;;;;;;;;;18.76;61.52;99797.47;3146801;28;19943;-65
2023/06/04 00:19:58;;;;;;;;;;;;;;;18.76;61.43;99796.63;3144817;28;19927;-62
2023/06/04 00:21:29;;;;;;;;;;;;;;;18.72;61.47;99788.06;3142008;28;20014;-62
2023/06/04 00:23:01;;;;;;;;;;;;;;;18.71;61.32;99783.75;3146660;28;19985;-64
2023/06/04 00:24:32;;;;;;;;;;;;;;;18.69;61.38;99788.31;3142761;28;19973;-66
2023/06/04 00:26:04;;;;;;;;;;;;;;;18.68;61.29;99794.53;3146676;28;19924;-64
2023/06/04 00:27:36;;;;;;;;;;;;;;;18.68;61.39;99791.91;3140516;28;19935;-64
2023/06/04 00:29:08;;;;;;;;;;;;;;;18.68;61.38;99793.72;3132171;28;19924;-63
2023/06/04 00:30:40;;;;;;;;;;;;;;;18.65;61.22;99790.34;3141557;28;19935;-64
2023/06/04 00:32:11;;;;;;;;;;;;;;;18.64;61.27;99790.50;3132882;28;20659;-63
2023/06/04 00:33:44;;;;;;;;;;;;;;;18.63;61.28;99794.06;3141462;28;19937;-63
2023/06/04 00:35:16;;;;;;;;;;;;;;;18.63;61.34;99792.28;3129926;28;19925;-63
2023/06/04 00:36:47;;;;;;;;;;;;;;;18.65;61.25;99797.44;3132993;28;19925;-63
2023/06/04 00:38:18;;;;;;;;;;;;;;;18.65;61.14;99797.44;3137654;28;20519;-64
2023/06/04 00:39:50;;;;;;;;;;;;;;;18.65;61.12;99800.91;3140137;28;19924;-63
2023/06/04 00:41:22;;;;;;;;;;;;;;;18.66;61.33;99796.47;3141360;28;19944;-63
2023/06/04 00:42:55;;;;;;;;;;;;;;;18.67;61.14;99797.31;3133153;28;20275;-65
2023/06/04 00:44:27;;;;;;;;;;;;;;;18.68;61.17;99788.44;3137804;28;19987;-66
2023/06/04 00:45:58;;;;;;;;;;;;;;;18.68;61.11;99799.81;3141550;28;19928;-65
2023/06/04 00:47:30;;;;;;;;;;;;;;;18.69;61.13;99793.56;3138822;28;20027;-65
2023/06/04 00:49:03;;;;;;;;;;;;;;;18.71;61.04;99796.09;3135657;28;19924;-65
2023/06/04 00:50:35;;;;;;;;;;;;;;;18.72;61.00;99798.59;3141061;28;19928;-65
2023/06/04 00:52:08;;;;;;;;;;;;;;;18.75;60.90;99798.44;3135778;28;19924;-65
2023/06/04 00:53:39;;;;;;;;;;;;;;;18.76;60.89;99800.09;3136904;28;19925;-65
2023/06/04 00:55:10;;;;;;;;;;;;;;;18.76;60.88;99800.09;3134891;28;19945;-65
2023/06/04 00:56:43;;;;;;;;;;;;;;;18.79;60.78;99804.28;3141060;28;20668;-65
2023/06/04 00:58:15;;;;;;;;;;;;;;;18.80;60.83;99804.16;3134306;28;20032;-65
2023/06/04 00:59:46;;;;;;;;;;;;;;;18.74;60.83;99788.81;3141483;28;19928;-66
2023/06/04 01:01:22;;;;;;;;;;;;;;;18.84;60.72;99802.97;3140427;28;19928;-66
2023/06/04 01:02:55;;;;;;;;;;;;;;;18.86;60.69;99805.47;3133348;28;19930;-66
2023/06/04 01:04:30;;;;;;;;;;;;;;;18.86;60.63;99806.31;3140826;28;19924;-66
2023/06/04 01:06:05;;;;;;;;;;;;;;;18.85;60.78;99809.91;3116562;28;20038;-67
2023/06/04 01:07:37;;;;;;;;;;;;;;;18.84;60.89;99807.38;3124983;28;19924;-66
2023/06/04 01:09:09;;;;;;;;;;;;;;;18.82;60.81;99815.44;3128772;28;19924;-67
2023/06/04 01:10:51;;;;;;;;;;;;;;;18.83;61.00;99814.47;3139826;28;19924;-67
2023/06/04 01:12:23;;;;;;;;;;;;;;;18.84;60.88;99817.94;3139179;28;19931;-66
2023/06/04 01:13:53;;;;;;;;;;;;;;;18.85;60.82;99809.09;3139349;28;19982;-66
2023/06/04 01:15:25;;;;;;;;;;;;;;;18.85;60.91;99820.47;3138693;28;19928;-66
2023/06/04 01:17:01;;;;;;;;;;;;;;;18.85;61.10;99817.81;3133443;28;19924;-66
2023/06/04 01:18:36;;;;;;;;;;;;;;;18.83;60.97;99817.09;3138141;28;20001;-67
2023/06/04 01:20:26;;;;;;;;;;;;;;;18.82;61.21;99814.59;3140898;28;19924;-66
2023/06/04 01:22:00;;;;;;;;;;;;;;;18.77;61.47;99814.94;3139290;28;19924;-66
2023/06/04 01:23:34;;;;;;;;;;;;;;;18.74;61.45;99817.84;3138908;28;19931;-66
2023/06/04 01:25:11;;;;;;;;;;;;;;;18.73;61.35;99815.31;3132434;28;19929;-66
2023/06/04 01:26:43;;;;;;;;;;;;;;;18.72;61.46;99810.97;3138036;28;19935;-65
2023/06/04 01:28:17;;;;;;;;;;;;;;;18.71;61.46;99812.78;3140474;28;19999;-65
2023/06/04 01:29:48;;;;;;;;;;;;;;;18.71;61.75;99817.22;3141158;28;20440;-66
2023/06/04 01:31:22;;;;;;;;;;;;;;;18.70;61.65;99811.09;3138025;28;19924;-66
2023/06/04 01:32:55;;;;;;;;;;;;;;;18.71;61.68;99817.22;3134000;28;19935;-65
2023/06/04 01:34:26;;;;;;;;;;;;;;;18.70;61.60;99816.38;3135061;28;19928;-67
2023/06/04 01:35:58;;;;;;;;;;;;;;;18.71;61.62;99823.31;3138507;28;19924;-65
2023/06/04 01:37:30;;;;;;;;;;;;;;;18.73;61.60;99818.81;3136983;28;19928;-64
2023/06/04 01:39:02;;;;;;;;;;;;;;;18.74;61.56;99820.47;3141097;28;19924;-65
2023/06/04 01:40:34;;;;;;;;;;;;;;;18.76;61.74;99820.38;3140383;28;19931;-63
2023/06/04 01:42:05;;;;;;;;;;;;;;;18.76;61.71;99812.44;3138922;28;19931;-63
2023/06/04 01:43:36;;;;;;;;;;;;;;;18.77;61.60;99814.13;3128869;28;20315;-63
2023/06/04 01:45:09;;;;;;;;;;;;;;;18.79;61.54;99820.13;3129144;28;19931;-66
2023/06/04 01:46:40;;;;;;;;;;;;;;;18.77;61.50;99812.31;3140543;28;19928;-65
2023/06/04 01:48:12;;;;;;;;;;;;;;;18.78;61.78;99818.44;3128778;28;20361;-65
2023/06/04 01:49:43;;;;;;;;;;;;;;;18.74;61.82;99811.72;3140571;28;19924;-65
2023/06/04 01:51:14;;;;;;;;;;;;;;;18.72;61.84;99809.16;3136884;28;20113;-63
2023/06/04 01:52:47;;;;;;;;;;;;;;;18.71;61.86;99811.94;3139047;28;19935;-63
2023/06/04 01:54:19;;;;;;;;;;;;;;;18.69;61.97;99811.22;3137526;28;19981;-63
2023/06/04 01:55:51;;;;;;;;;;;;;;;18.68;61.97;99813.00;3137443;28;19947;-63
2023/06/04 01:57:22;;;;;;;;;;;;;;;18.69;61.91;99811.22;3138702;28;19934;-63
2023/06/04 01:58:53;;;;;;;;;;;;;;;18.68;61.74;99813.00;3129887;28;19924;-65
2023/06/04 02:00:24;;;;;;;;;;;;;;;18.67;62.14;99821.91;3135182;28;19924;-63
2023/06/04 02:01:56;;;;;;;;;;;;;;;18.63;62.07;99821.31;3140265;28;20393;-63
2023/06/04 02:03:27;;;;;;;;;;;;;;;18.63;62.16;99825.72;3140245;28;19924;-65
2023/06/04 02:04:59;;;;;;;;;;;;;;;18.63;62.21;99826.56;3140057;28;19993;-63
2023/06/04 02:06:31;;;;;;;;;;;;;;;18.65;62.17;99826.44;3135872;28;19925;-63
2023/06/04 02:08:04;;;;;;;;;;;;;;;18.65;62.15;99829.06;3131277;28;19929;-63
2023/06/04 02:09:35;;;;;;;;;;;;;;;18.66;62.04;99825.47;3140501;28;19977;-64
2023/06/04 02:11:07;;;;;;;;;;;;;;;18.68;62.03;99828.84;3140215;28;20367;-64
2023/06/04 02:12:38;;;;;;;;;;;;;;;18.68;61.94;99831.47;3136998;28;19925;-64
2023/06/04 02:14:10;;;;;;;;;;;;;;;18.69;62.04;99825.22;3140497;28;19985;-65
2023/06/04 02:15:41;;;;;;;;;;;;;;;18.69;62.05;99827.88;3139342;28;19931;-64
2023/06/04 02:17:12;;;;;;;;;;;;;;;18.68;61.88;99834.13;3142786;28;19927;-64
2023/06/04 02:18:44;;;;;;;;;;;;;;;18.67;62.01;99832.44;3145295;28;19922;-64
2023/06/04 02:20:16;;;;;;;;;;;;;;;18.68;62.01;99834.13;3144545;28;19920;-64
2023/06/04 02:21:47;;;;;;;;;;;;;;;18.67;61.93;99836.88;3142252;28;19920;-64
2023/06/04 02:23:21;;;;;;;;;;;;;;;18.67;62.11;99837.72;3145657;28;20420;-64
2023/06/04 02:24:51;;;;;;;;;;;;;;;18.68;61.81;99841.19;3145512;28;19921;-64
2023/06/04 02:26:23;;;;;;;;;;;;;;;18.69;62.04;99838.41;3145125;28;20014;-65
2023/06/04 02:27:54;;;;;;;;;;;;;;;18.71;62.07;99840.94;3131200;28;19967;-65
2023/06/04 02:29:26;;;;;;;;;;;;;;;18.71;61.98;99843.59;3141256;28;19927;-65
2023/06/04 02:30:58;;;;;;;;;;;;;;;18.70;61.81;99847.19;3145601;28;20383;-65
2023/06/04 02:32:28;;;;;;;;;;;;;;;18.71;61.88;99849.69;3145481;28;19928;-64
2023/06/04 02:34:00;;;;;;;;;;;;;;;18.71;61.87;99844.44;3145597;28;19928;-64
2023/06/04 02:35:32;;;;;;;;;;;;;;;18.71;61.67;99857.63;3141699;28;20002;-65
2023/06/04 02:37:03;;;;;;;;;;;;;;;18.71;61.89;99849.69;3145479;28;19920;-65
2023/06/04 02:38:36;;;;;;;;;;;;;;;18.71;61.88;99857.63;3145317;28;20058;-65
2023/06/04 02:40:08;;;;;;;;;;;;;;;18.70;61.90;99850.66;3142294;28;20386;-65
2023/06/04 02:41:40;;;;;;;;;;;;;;;18.70;61.92;99855.94;3135094;28;19925;-65
2023/06/04 02:43:11;;;;;;;;;;;;;;;18.70;61.94;99855.94;3134257;28;19920;-65
2023/06/04 02:44:43;;;;;;;;;;;;;;;18.70;61.86;99853.31;3144533;28;19943;-66
2023/06/04 02:46:14;;;;;;;;;;;;;;;18.70;62.07;99855.13;3145509;28;20568;-66
2023/06/04 02:47:46;;;;;;;;;;;;;;;18.68;62.17;99857.84;3145640;28;19978;-66
2023/06/04 02:49:17;;;;;;;;;;;;;;;18.66;62.20;99862.41;3144935;28;19928;-65
2023/06/04 02:50:48;;;;;;;;;;;;;;;18.62;62.37;99858.34;3141396;28;20360;-65
2023/06/04 02:52:22;;;;;;;;;;;;;;;18.58;62.68;99862.19;3135604;28;19924;-65
2023/06/04 02:53:56;;;;;;;;;;;;;;;18.52;62.84;99860.03;3145613;28;19975;-65
2023/06/04 02:55:27;;;;;;;;;;;;;;;18.49;62.90;99860.25;3139479;28;20010;-65
2023/06/04 02:56:58;;;;;;;;;;;;;;;18.46;62.99;99866.59;3144968;28;19927;-65
2023/06/04 02:58:31;;;;;;;;;;;;;;;18.42;62.88;99865.97;3138920;28;19924;-65
2023/06/04 03:00:07;;;;;;;;;;;;;;;18.42;63.11;99867.78;3144965;28;19963;-65
2023/06/04 03:01:39;;;;;;;;;;;;;;;18.41;63.11;99874.84;3145271;28;20316;-65
2023/06/04 03:03:10;;;;;;;;;;;;;;;18.40;63.10;99874.97;3145290;28;20317;-65
2023/06/04 03:04:42;;;;;;;;;;;;;;;18.38;63.33;99872.44;3140830;28;19921;-65
2023/06/04 03:06:14;;;;;;;;;;;;;;;18.41;63.19;99879.28;3145082;28;19943;-66
2023/06/04 03:07:47;;;;;;;;;;;;;;;18.40;63.13;99877.63;3136504;28;19925;-66
2023/06/04 03:09:20;;;;;;;;;;;;;;;18.41;63.03;99880.13;3139020;28;19928;-65
2023/06/04 03:10:52;;;;;;;;;;;;;;;18.42;62.99;99886.22;3145390;28;19968;-65
2023/06/04 03:12:24;;;;;;;;;;;;;;;18.41;63.07;99885.41;3122166;28;20016;-65
2023/06/04 03:13:55;;;;;;;;;;;;;;;18.42;63.10;99881.78;3144800;28;19982;-66
2023/06/04 03:15:27;;;;;;;;;;;;;;;18.44;63.14;99889.59;3145310;28;19927;-65
2023/06/04 03:17:00;;;;;;;;;;;;;;;18.45;63.04;99890.44;3142167;28;19927;-65
2023/06/04 03:18:32;;;;;;;;;;;;;;;18.46;63.05;99892.97;3141984;28;19999;-65
2023/06/04 03:20:06;;;;;;;;;;;;;;;18.48;62.98;99884.94;3142149;28;19920;-65
2023/06/04 03:21:39;;;;;;;;;;;;;;;18.49;63.04;99881.34;3145349;28;19990;-65
2023/06/04 03:23:11;;;;;;;;;;;;;;;18.50;63.16;99889.13;3139768;28;19994;-65
2023/06/04 03:24:43;;;;;;;;;;;;;;;18.51;63.05;99889.97;3138479;28;20337;-65
2023/06/04 03:26:15;;;;;;;;;;;;;;;18.51;62.98;99890.78;3139490;28;19960;-65
2023/06/04 03:27:47;;;;;;;;;;;;;;;18.54;62.85;99892.38;3142188;28;19944;-65
2023/06/04 03:29:17;;;;;;;;;;;;;;;18.55;62.72;99894.91;3140104;28;20317;-65
2023/06/04 03:30:49;;;;;;;;;;;;;;;18.55;62.81;99896.69;3147007;28;19920;-65
2023/06/04 03:32:20;;;;;;;;;;;;;;;18.56;62.70;99898.38;3147358;28;19924;-65
2023/06/04 03:33:51;;;;;;;;;;;;;;;18.59;62.61;99903.41;3143014;28;19982;-65
2023/06/04 03:35:22;;;;;;;;;;;;;;;18.61;62.61;99906.78;3145886;28;20015;-65
2023/06/04 03:36:54;;;;;;;;;;;;;;;18.63;62.63;99907.47;3140166;28;20378;-65
2023/06/04 03:38:26;;;;;;;;;;;;;;;18.63;62.63;99908.34;3147269;28;19931;-65
2023/06/04 03:39:59;;;;;;;;;;;;;;;18.62;62.58;99908.44;3147143;28;20294;-65
2023/06/04 03:41:30;;;;;;;;;;;;;;;18.61;62.64;99914.69;3147212;28;19920;-64
2023/06/04 03:43:03;;;;;;;;;;;;;;;18.59;62.70;99914.78;3134687;28;19924;-66
2023/06/04 03:44:35;;;;;;;;;;;;;;;18.57;62.73;99905.31;3145239;28;19931;-65
2023/06/04 03:46:07;;;;;;;;;;;;;;;18.55;62.84;99910.72;3147237;28;19986;-65
2023/06/04 03:47:38;;;;;;;;;;;;;;;18.56;62.94;99915.03;3146907;28;19925;-65
2023/06/04 03:49:10;;;;;;;;;;;;;;;18.59;62.58;99919.22;3143028;28;19924;-65
2023/06/04 03:50:42;;;;;;;;;;;;;;;18.61;62.60;99912.06;3147057;28;20011;-65
2023/06/04 03:52:14;;;;;;;;;;;;;;;18.61;62.71;99918.16;3141627;28;19924;-65
2023/06/04 03:53:44;;;;;;;;;;;;;;;18.64;62.84;99914.44;3142629;28;19932;-65
2023/06/04 03:55:18;;;;;;;;;;;;;;;18.60;62.73;99911.22;3139699;28;20425;-65
2023/06/04 03:56:49;;;;;;;;;;;;;;;18.59;63.09;99914.78;3147125;28;20457;-65
2023/06/04 03:58:21;;;;;;;;;;;;;;;18.62;62.97;99924.28;3140818;28;20320;-65
2023/06/04 03:59:53;;;;;;;;;;;;;;;18.63;62.82;99916.25;3146771;28;19920;-65
2023/06/04 04:01:25;;;;;;;;;;;;;;;18.68;62.77;99925.59;3145080;28;20706;-64
2023/06/04 04:02:56;;;;;;;;;;;;;;;18.71;62.76;99923.56;3136218;28;20294;-64
2023/06/04 04:04:28;;;;;;;;;;;;;;;18.74;62.81;99923.34;3147213;28;20015;-64
2023/06/04 04:05:59;;;;;;;;;;;;;;;18.77;62.62;99923.13;3136822;28;19920;-65
2023/06/04 04:07:30;;;;;;;;;;;;;;;18.80;62.55;99922.88;3130291;28;19921;-65
2023/06/04 04:09:02;;;;;;;;;;;;;;;18.82;62.63;99925.41;3146255;28;20071;-66
2023/06/04 04:10:35;;;;;;;;;;;;;;;18.85;62.40;99933.94;3147044;28;20460;-65
2023/06/04 04:12:06;;;;;;;;;;;;;;;18.89;62.36;99934.53;3145815;28;19925;-65
2023/06/04 04:13:37;;;;;;;;;;;;;;;18.93;62.35;99935.13;3132817;28;19932;-65
2023/06/04 04:15:09;;;;;;;;;;;;;;;18.95;62.22;99941.13;3137851;28;19924;-65
2023/06/04 04:16:41;;;;;;;;;;;;;;;18.98;62.21;99947.00;3141468;28;19924;-65
2023/06/04 04:18:12;;;;;;;;;;;;;;;19.01;62.09;99949.41;3137210;28;19935;-65
2023/06/04 04:19:43;;;;;;;;;;;;;;;19.03;62.11;99941.38;3140099;28;19924;-64
2023/06/04 04:21:15;;;;;;;;;;;;;;;19.03;62.21;99944.84;3137812;28;19929;-64
2023/06/04 04:22:46;;;;;;;;;;;;;;;19.03;62.18;99944.84;3133773;28;19935;-64
2023/06/04 04:24:24;;;;;;;;;;;;;;;19.03;62.22;99949.28;3141201;28;19977;-65
2023/06/04 04:25:58;;;;;;;;;;;;;;;19.00;62.09;99939.81;3141645;28;19928;-65
2023/06/04 04:27:31;;;;;;;;;;;;;;;18.99;62.42;99947.84;3138723;28;19928;-64
2023/06/04 04:29:03;;;;;;;;;;;;;;;18.98;62.52;99946.16;3131064;28;19924;-64
2023/06/04 04:30:35;;;;;;;;;;;;;;;18.98;62.41;99946.16;3132391;28;19924;-64
2023/06/04 04:32:10;;;;;;;;;;;;;;;18.96;62.63;99942.78;3136557;28;19978;-63
2023/06/04 04:33:41;;;;;;;;;;;;;;;18.95;62.85;99946.41;3129554;28;20412;-64
2023/06/04 04:35:14;;;;;;;;;;;;;;;18.94;62.69;99940.28;3139657;28;19924;-64
2023/06/04 04:36:51;;;;;;;;;;;;;;;18.96;62.79;99950.72;3116760;28;20043;-64
2023/06/04 04:38:24;;;;;;;;;;;;;;;18.96;62.99;99950.72;3117240;28;20382;-63
2023/06/04 04:39:55;;;;;;;;;;;;;;;18.96;62.88;99953.34;3129382;28;19975;-66
2023/06/04 04:41:28;;;;;;;;;;;;;;;18.95;63.00;99952.50;3139891;28;20035;-66
2023/06/04 04:42:58;;;;;;;;;;;;;;;18.97;63.03;99958.53;3132198;28;19932;-66
2023/06/04 04:44:30;;;;;;;;;;;;;;;18.98;63.09;99964.63;3137893;28;19931;-66
2023/06/04 04:46:02;;;;;;;;;;;;;;;19.01;63.10;99959.13;3141252;28;20085;-66
2023/06/04 04:47:32;;;;;;;;;;;;;;;19.04;63.06;99958.88;3131867;28;20556;-65
2023/06/04 04:49:04;;;;;;;;;;;;;;;19.09;62.95;99964.66;3141472;28;19924;-66
2023/06/04 04:50:35;;;;;;;;;;;;;;;19.14;62.86;99962.50;3141257;28;19930;-66
2023/06/04 04:52:07;;;;;;;;;;;;;;;19.18;62.76;99960.44;3130530;28;19936;-67
2023/06/04 04:53:39;;;;;;;;;;;;;;;19.21;62.65;99966.31;3128969;28;19925;-67
2023/06/04 04:55:11;;;;;;;;;;;;;;;19.24;62.59;99963.44;3135589;28;19930;-67
2023/06/04 04:56:44;;;;;;;;;;;;;;;19.27;62.63;99968.47;3141279;28;20705;-65
2023/06/04 04:58:16;;;;;;;;;;;;;;;19.30;62.56;99973.50;3131195;28;20027;-64
2023/06/04 04:59:48;;;;;;;;;;;;;;;19.34;62.45;99963.53;3129110;28;20011;-65
2023/06/04 05:01:21;;;;;;;;;;;;;;;19.38;62.27;99970.28;3134031;28;19947;-65
2023/06/04 05:02:51;;;;;;;;;;;;;;;19.42;62.15;99965.59;3128989;28;19925;-65
2023/06/04 05:04:23;;;;;;;;;;;;;;;19.47;61.97;99968.72;3135829;28;20480;-66
2023/06/04 05:05:55;;;;;;;;;;;;;;;19.51;62.16;99968.34;3141251;28;19928;-64
2023/06/04 05:07:25;;;;;;;;;;;;;;;19.54;61.96;99965.44;3137202;28;20734;-65
2023/06/04 05:08:57;;;;;;;;;;;;;;;19.58;61.93;99971.34;3141210;28;19924;-64
2023/06/04 05:10:29;;;;;;;;;;;;;;;19.60;62.05;99969.41;3131641;28;20733;-64
2023/06/04 05:12:02;;;;;;;;;;;;;;;19.64;62.04;99960.28;3141208;28;19929;-64
2023/06/04 05:13:34;;;;;;;;;;;;;;;19.69;61.81;99973.13;3129666;28;19924;-64
2023/06/04 05:15:07;;;;;;;;;;;;;;;19.69;61.89;99976.63;3128585;28;20019;-64
2023/06/04 05:16:40;;;;;;;;;;;;;;;19.72;61.83;99972.88;3128673;28;19972;-64
2023/06/04 05:18:12;;;;;;;;;;;;;;;19.73;61.73;99975.44;3130083;28;19930;-64
2023/06/04 05:19:43;;;;;;;;;;;;;;;19.75;61.99;99967.34;3140597;28;20327;-63
2023/06/04 05:21:16;;;;;;;;;;;;;;;19.77;61.66;99976.84;3140109;28;19924;-64
2023/06/04 05:22:48;;;;;;;;;;;;;;;19.80;62.02;99977.56;3140095;28;20468;-65
2023/06/04 05:24:19;;;;;;;;;;;;;;;19.85;61.85;99983.34;3141123;28;19931;-64
2023/06/04 05:25:51;;;;;;;;;;;;;;;19.87;61.76;99976.94;3140913;28;19925;-65
2023/06/04 05:27:24;;;;;;;;;;;;;;;19.91;61.66;99983.66;3139779;28;19924;-65
2023/06/04 05:28:58;;;;;;;;;;;;;;;19.94;61.57;99977.28;3136951;28;19978;-64
2023/06/04 05:30:29;;;;;;;;;;;;;;;19.96;61.54;99986.75;3129890;28;19971;-64
2023/06/04 05:32:01;;;;;;;;;;;;;;;19.97;61.47;99987.63;3130442;28;19925;-65
2023/06/04 05:33:32;;;;;;;;;;;;;;;19.95;61.59;99990.38;3140227;28;19930;-65
2023/06/04 05:35:04;;;;;;;;;;;;;;;19.94;61.71;99994.00;3139974;28;19924;-67
2023/06/04 05:36:37;;;;;;;;;;;;;;;19.95;61.64;99985.09;3138296;28;19927;-63
2023/06/04 05:38:09;;;;;;;;;;;;;;;19.98;61.49;99992.75;3140756;28;19929;-62
2023/06/04 05:39:39;;;;;;;;;;;;;;;20.03;61.66;99995.03;3140789;28;19943;-62
2023/06/04 05:41:11;;;;;;;;;;;;;;;20.08;61.26;99997.28;3139795;28;20254;-62
2023/06/04 05:42:44;;;;;;;;;;;;;;;20.12;61.20;99994.28;3133998;28;19925;-61
2023/06/04 05:44:16;;;;;;;;;;;;;;;20.17;61.24;99994.75;3128487;28;20317;-64
2023/06/04 05:45:48;;;;;;;;;;;;;;;20.21;60.83;100001.47;3128687;28;19929;-62
2023/06/04 05:47:18;;;;;;;;;;;;;;;20.23;61.10;100004.84;3131484;28;20188;-61
2023/06/04 05:48:50;;;;;;;;;;;;;;;20.25;60.98;100006.50;3128558;28;20422;-65
2023/06/04 05:50:22;;;;;;;;;;;;;;;20.29;61.11;100011.44;3131296;28;19928;-62
2023/06/04 05:51:54;;;;;;;;;;;;;;;20.32;61.10;100002.38;3128520;28;20023;-65
2023/06/04 05:53:26;;;;;;;;;;;;;;;20.34;60.85;100011.88;3137535;28;19940;-65
2023/06/04 05:54:57;;;;;;;;;;;;;;;20.37;60.76;100005.50;3132460;28;20370;-66
2023/06/04 05:56:29;;;;;;;;;;;;;;;20.38;60.81;100012.44;3135961;28;19924;-65
2023/06/04 05:58:02;;;;;;;;;;;;;;;20.39;60.60;100008.84;3133566;28;19924;-67
2023/06/04 05:59:35;;;;;;;;;;;;;;;20.39;60.74;100014.13;3135143;28;19985;-67
2023/06/04 06:01:07;;;;;;;;;;;;;;;20.40;60.61;100013.16;3140404;28;19924;-69
2023/06/04 06:02:40;;;;;;;;;;;;;;;20.43;60.60;100026.13;3133605;28;20374;-66
2023/06/04 06:04:12;;;;;;;;;;;;;;;20.44;60.52;100022.53;3140695;28;19924;-66
2023/06/04 06:05:43;;;;;;;;;;;;;;;20.45;60.58;100024.22;3137550;28;19924;-67
2023/06/04 06:07:15;;;;;;;;;;;;;;;20.48;60.39;100029.25;3131074;28;20332;-65
2023/06/04 06:08:47;;;;;;;;;;;;;;;20.51;60.42;100018.41;3140634;28;19928;-64
2023/06/04 06:10:19;;;;;;;;;;;;;;;20.55;60.32;100029.59;3140041;28;20367;-65
2023/06/04 06:11:50;;;;;;;;;;;;;;;20.59;60.13;100031.88;3136548;28;19932;-65
2023/06/04 06:13:22;;;;;;;;;;;;;;;20.61;60.42;100029.94;3133788;28;19924;-65
2023/06/04 06:14:54;;;;;;;;;;;;;;;20.64;60.35;100027.03;3133573;28;19986;-63
2023/06/04 06:16:25;;;;;;;;;;;;;;;20.65;60.26;100036.66;3137598;28;20475;-63
2023/06/04 06:17:57;;;;;;;;;;;;;;;20.66;60.41;100035.69;3135220;28;19973;-66
2023/06/04 06:19:38;;;;;;;;;;;;;;;20.68;60.25;100033.75;3141884;28;19998;-65
2023/06/04 06:21:09;;;;;;;;;;;;;;;20.74;60.22;100039.50;3145554;28;19960;-68
2023/06/04 06:22:41;;;;;;;;;;;;;;;20.80;60.23;100042.47;3145872;28;19943;-65
2023/06/04 06:24:13;;;;;;;;;;;;;;;20.87;60.12;100035.69;3144964;28;19921;-69
2023/06/04 06:25:45;;;;;;;;;;;;;;;20.94;60.07;100041.31;3139918;28;19946;-67
2023/06/04 06:27:17;;;;;;;;;;;;;;;20.97;59.85;100035.75;3144090;28;19966;-67
2023/06/04 06:28:50;;;;;;;;;;;;;;;21.00;59.86;100042.59;3136168;28;20420;-69
2023/06/04 06:30:22;;;;;;;;;;;;;;;21.01;59.96;100042.47;3145572;28;19924;-68
2023/06/04 06:31:54;;;;;;;;;;;;;;;21.02;59.80;100033.53;3140232;28;20135;-67
2023/06/04 06:33:24;;;;;;;;;;;;;;;21.06;59.81;100045.56;3139954;28;20321;-69
2023/06/04 06:34:56;;;;;;;;;;;;;;;21.06;60.07;100044.72;3145814;28;19969;-69
2023/06/04 06:36:28;;;;;;;;;;;;;;;21.09;59.86;100040.00;3130535;28;19978;-67
2023/06/04 06:38:00;;;;;;;;;;;;;;;21.17;59.69;100041.16;3144817;28;19927;-69
2023/06/04 06:39:32;;;;;;;;;;;;;;;21.22;59.67;100047.75;3145208;28;19921;-67
2023/06/04 06:41:03;;;;;;;;;;;;;;;21.29;59.63;100037.44;3140733;28;20412;-69
2023/06/04 06:42:35;;;;;;;;;;;;;;;21.32;59.21;100039.81;3139093;28;19931;-68
2023/06/04 06:44:08;;;;;;;;;;;;;;;21.34;59.18;100043.19;3143213;28;20379;-68
2023/06/04 06:45:39;;;;;;;;;;;;;;;21.39;59.25;100041.03;3145312;28;19924;-68
2023/06/04 06:47:13;;;;;;;;;;;;;;;21.43;59.21;100041.59;3144764;28;19920;-68
2023/06/04 06:48:45;;;;;;;;;;;;;;;21.45;58.82;100045.78;3144940;28;19927;-69
2023/06/04 06:50:16;;;;;;;;;;;;;;;21.48;58.83;100044.69;3145587;28;19928;-72
2023/06/04 06:51:48;;;;;;;;;;;;;;;21.49;58.74;100041.88;3137827;28;19928;-69
2023/06/04 06:53:19;;;;;;;;;;;;;;;21.49;58.65;100049.84;3144336;28;19951;-70
2023/06/04 06:54:52;;;;;;;;;;;;;;;21.53;58.54;100051.28;3137791;28;20314;-69
2023/06/04 06:56:24;;;;;;;;;;;;;;;21.52;58.50;100052.22;3143398;28;20420;-68
2023/06/04 06:57:56;;;;;;;;;;;;;;;21.50;58.84;100054.19;3139258;28;19921;-69
2023/06/04 06:59:29;;;;;;;;;;;;;;;21.50;58.82;100042.72;3140679;28;19920;-67
2023/06/04 07:01:01;;;;;;;;;;;;;;;21.49;58.53;100046.34;3138917;28;20011;-66
2023/06/04 07:02:33;;;;;;;;;;;;;;;21.47;58.60;100049.13;3137521;28;19921;-69
2023/06/04 07:04:04;;;;;;;;;;;;;;;21.48;58.50;100050.81;3148106;28;19932;-66
2023/06/04 07:05:36;;;;;;;;;;;;;;;21.51;58.71;100058.50;3147739;28;19921;-67
2023/06/04 07:07:08;;;;;;;;;;;;;;;21.55;58.46;100056.41;3143365;28;19996;-68
2023/06/04 07:08:40;;;;;;;;;;;;;;;21.60;58.71;100050.72;3132195;28;20711;-66
2023/06/04 07:10:12;;;;;;;;;;;;;;;21.60;58.31;100051.56;3142064;28;20024;-68
2023/06/04 07:11:43;;;;;;;;;;;;;;;21.51;58.45;100053.22;3146722;28;19920;-67
2023/06/04 07:13:15;;;;;;;;;;;;;;;21.47;58.51;100053.59;3138646;28;20039;-69
2023/06/04 07:14:48;;;;;;;;;;;;;;;21.45;58.72;100060.84;3144187;28;19928;-70
2023/06/04 07:16:20;;;;;;;;;;;;;;;21.41;58.63;100060.25;3144130;28;19924;-70
2023/06/04 07:17:51;;;;;;;;;;;;;;;21.41;58.84;100065.56;3147584;28;19959;-69
2023/06/04 07:19:23;;;;;;;;;;;;;;;21.43;59.06;100062.78;3147695;28;19920;-68
2023/06/04 07:20:54;;;;;;;;;;;;;;;21.42;58.85;100069.91;3147937;28;19928;-69
2023/06/04 07:22:26;;;;;;;;;;;;;;;21.43;59.20;100073.38;3141132;28;19921;-64
2023/06/04 07:23:58;;;;;;;;;;;;;;;21.42;59.42;100072.56;3146941;28;19940;-67
2023/06/04 07:25:29;;;;;;;;;;;;;;;21.44;59.03;100073.25;3147617;28;19954;-65
2023/06/04 07:27:01;;;;;;;;;;;;;;;21.46;59.02;100073.13;3147789;28;19920;-66
2023/06/04 07:28:32;;;;;;;;;;;;;;;21.47;59.09;100070.31;3146291;28;19977;-66
2023/06/04 07:30:07;;;;;;;;;;;;;;;21.51;59.17;100078.88;3141335;28;20010;-68
2023/06/04 07:31:39;;;;;;;;;;;;;;;21.51;59.19;100071.75;3144582;28;19927;-66
2023/06/04 07:33:10;;;;;;;;;;;;;;;21.50;59.19;100075.38;3147485;28;19928;-67
2023/06/04 07:34:42;;;;;;;;;;;;;;;21.51;59.26;100076.22;3147782;28;19974;-68
2023/06/04 07:36:14;;;;;;;;;;;;;;;21.52;59.10;100078.72;3139297;28;20398;-67
2023/06/04 07:37:47;;;;;;;;;;;;;;;21.49;59.24;100078.97;3142955;28;19931;-66
2023/06/04 07:39:19;;;;;;;;;;;;;;;21.49;59.42;100083.44;3147406;28;19920;-67
2023/06/04 07:40:51;;;;;;;;;;;;;;;21.47;59.79;100078.28;3147460;28;19925;-65
2023/06/04 07:42:21;;;;;;;;;;;;;;;21.38;60.08;100087.00;3143325;28;20307;-66
2023/06/04 07:43:53;;;;;;;;;;;;;;;21.33;60.19;100084.75;3140431;28;19920;-67
2023/06/04 07:45:28;;;;;;;;;;;;;;;21.33;60.30;100086.56;3144573;28;19931;-68
2023/06/04 07:46:59;;;;;;;;;;;;;;;21.33;60.28;100083.91;3147394;28;20370;-67
2023/06/04 07:48:31;;;;;;;;;;;;;;;21.32;60.40;100088.34;3144392;28;19921;-64
2023/06/04 07:50:03;;;;;;;;;;;;;;;21.29;60.55;100085.13;3137411;28;20340;-66
2023/06/04 07:51:34;;;;;;;;;;;;;;;21.26;60.39;100093.34;3139824;28;20349;-66
2023/06/04 07:53:06;;;;;;;;;;;;;;;21.26;60.68;100098.63;3140670;28;19920;-66
2023/06/04 07:54:41;;;;;;;;;;;;;;;21.24;60.69;100097.94;3145211;28;19964;-68
2023/06/04 07:56:15;;;;;;;;;;;;;;;21.21;61.12;100092.88;3146839;28;19925;-66